Kezdőlap
METAR-TAF:

METAR-TAF

Repülőterek :

Prága, Csehország

földrajzi szélesség: 50-12-59N, földrajzi hosszúság: 014-23-42E, magasság: 280 m

Jelenlegi meteorológiai megfigyelések

A jelentés 18 órával és 16 perccel ezelõtt készült, 09:00 UTC
Kelet-délkeleti szél 7 kt, kelet-északkeleti és déli között változik
Hőmérséklet 17°C
Páratartalom 63%
Légköri nyomás 1015 hPa
Látótávolság 10 km, vagy több
felhőtlen 1500 m magasságban, és nincs gomolyfelhõ

METAR: LKVO 140900Z 12007KT 070V190 CAVOK 17/10 Q1015

Idő: 05:16 (03:16 UTC)


TAF: hiányzik

Meteorológiai megfigyelések és előrejelzések több, mint 4000 repülőtéren (METAR és TAF jelentéseket).

A térképen piros és sárga pontok jelzik az elérhető meteorológiai állomásokat.

Mozgassa az egeret a pont fölött, hogy megjelenjen az állomás neve.

Azután kattintson az időjárási megfigyelések és előrejelzések megtekintéséhez.

A térkép megváltoztatása: kattintson a fekete keresztel jelölt zöld gombra ráközelítéshez, a vonallal jelölt zöld gombra távolításhoz, vagy a zöld nyilakra a szomszédos térképek eléréséhez.


METAR-TAF: